createdAt,value
2023-01-20T00:01:17.056Z,4.01
2023-01-20T00:03:45.770Z,3.99
2023-01-20T00:06:13.756Z,4.07
2023-01-20T00:08:42.356Z,4.13
2023-01-20T00:11:14.550Z,4.17
2023-01-20T00:13:43.625Z,4.18
2023-01-20T00:16:12.717Z,4.18
2023-01-20T00:18:41.674Z,4.23
2023-01-20T00:21:11.904Z,4.27
2023-01-20T00:23:40.430Z,4.24
2023-01-20T00:26:09.572Z,4.26
2023-01-20T00:28:37.729Z,4.28
2023-01-20T00:31:15.492Z,4.29
2023-01-20T00:33:43.715Z,4.26
2023-01-20T00:36:13.187Z,4.23
2023-01-20T00:38:41.339Z,4.29
2023-01-20T00:41:09.784Z,4.24
2023-01-20T00:43:37.790Z,4.26
2023-01-20T00:46:06.556Z,4.29
2023-01-20T00:48:36.279Z,4.30
2023-01-20T00:51:05.061Z,4.33
2023-01-20T00:53:34.768Z,4.36
2023-01-20T00:56:02.820Z,4.30
2023-01-20T00:58:30.665Z,4.32
2023-01-20T01:00:59.015Z,4.27
2023-01-20T01:03:28.774Z,4.34
2023-01-20T01:06:06.913Z,4.38
2023-01-20T01:08:35.922Z,4.38
2023-01-20T01:11:04.003Z,4.36
2023-01-20T01:13:32.296Z,4.37
2023-01-20T01:16:00.453Z,4.39
2023-01-20T01:18:28.381Z,4.39
2023-01-20T01:20:57.880Z,4.32
2023-01-20T01:23:25.763Z,4.34
2023-01-20T01:25:53.516Z,4.31
2023-01-20T01:28:21.220Z,4.37
2023-01-20T01:30:48.957Z,4.35
2023-01-20T01:33:16.724Z,4.35
2023-01-20T01:35:44.509Z,4.31
2023-01-20T01:38:13.615Z,4.32
2023-01-20T01:40:41.344Z,4.34
2023-01-20T01:43:23.453Z,4.36
2023-01-20T01:45:51.295Z,4.34
2023-01-20T01:48:21.471Z,4.35
2023-01-20T01:50:54.376Z,4.32
2023-01-20T01:53:24.127Z,4.33
2023-01-20T01:55:57.182Z,4.32
2023-01-20T01:58:29.197Z,4.31
2023-01-20T02:00:56.997Z,4.29
2023-01-20T02:03:25.661Z,4.18
2023-01-20T02:05:56.022Z,4.18
2023-01-20T02:08:26.470Z,4.23
2023-01-20T02:10:54.246Z,4.17
2023-01-20T02:13:22.023Z,4.19
2023-01-20T02:15:58.122Z,4.17
2023-01-20T02:18:39.434Z,4.15
2023-01-20T02:21:49.383Z,4.17
2023-01-20T02:24:56.480Z,4.13
2023-01-20T02:27:40.705Z,4.15
2023-01-20T02:30:30.801Z,4.17
2023-01-20T02:33:05.578Z,4.15
2023-01-20T02:35:39.715Z,4.23
2023-01-20T02:38:16.194Z,4.24
2023-01-20T02:40:53.233Z,4.24
2023-01-20T02:43:29.071Z,4.25
2023-01-20T02:46:02.572Z,4.24
2023-01-20T02:48:39.745Z,4.24
2023-01-20T02:51:13.247Z,4.26
2023-01-20T02:53:47.889Z,4.27
2023-01-20T02:56:17.258Z,4.32
2023-01-20T02:58:50.063Z,4.31
2023-01-20T03:01:23.768Z,4.33
2023-01-20T03:03:56.514Z,4.30
2023-01-20T03:06:28.273Z,4.29
2023-01-20T03:08:58.557Z,4.27
2023-01-20T03:11:26.368Z,4.32
2023-01-20T03:14:00.594Z,4.31
2023-01-20T03:16:29.752Z,4.31
2023-01-20T03:18:59.301Z,4.29
2023-01-20T03:21:27.859Z,4.27
2023-01-20T03:24:00.763Z,4.26
2023-01-20T03:26:30.349Z,4.26
2023-01-20T03:28:58.942Z,4.24
2023-01-20T03:31:30.526Z,4.28
2023-01-20T03:34:03.261Z,4.28
2023-01-20T03:36:32.943Z,4.31
2023-01-20T03:39:01.721Z,4.33
2023-01-20T03:41:41.256Z,4.37
2023-01-20T03:44:13.595Z,4.37
2023-01-20T03:46:47.048Z,4.41
2023-01-20T03:49:25.338Z,4.40
2023-01-20T03:52:01.491Z,4.38
2023-01-20T03:54:36.586Z,4.38
2023-01-20T03:57:09.290Z,4.37
2023-01-20T03:59:41.273Z,4.39
2023-01-20T04:02:11.466Z,4.38
2023-01-20T04:04:44.390Z,4.39
2023-01-20T04:07:16.635Z,4.43
2023-01-20T04:09:49.159Z,4.40
2023-01-20T04:12:17.014Z,4.37
2023-01-20T04:14:44.870Z,4.40
2023-01-20T04:17:13.863Z,4.41
2023-01-20T04:19:43.036Z,4.42
2023-01-20T04:22:17.388Z,4.35
2023-01-20T04:24:51.478Z,4.45
2023-01-20T04:27:19.307Z,4.47
2023-01-20T04:29:47.046Z,4.44
2023-01-20T04:32:14.957Z,4.45
2023-01-20T04:34:44.091Z,4.45
2023-01-20T04:37:11.878Z,4.49
2023-01-20T04:39:39.653Z,4.47
2023-01-20T04:42:07.392Z,4.51
2023-01-20T04:44:35.135Z,4.50
2023-01-20T04:47:02.911Z,4.55
2023-01-20T04:49:30.570Z,4.50
2023-01-20T04:51:59.632Z,4.54
2023-01-20T04:54:27.366Z,4.53
2023-01-20T04:56:55.077Z,4.53
2023-01-20T04:59:22.962Z,4.53
2023-01-20T05:01:50.783Z,4.56
2023-01-20T05:04:18.626Z,4.57
2023-01-20T05:06:48.677Z,4.56
2023-01-20T05:09:20.752Z,4.55
2023-01-20T05:11:48.562Z,4.53
2023-01-20T05:14:16.314Z,4.59
2023-01-20T05:16:44.174Z,4.55
2023-01-20T05:19:12.012Z,4.46
2023-01-20T05:21:39.804Z,4.53
2023-01-20T05:24:07.921Z,4.56
2023-01-20T05:26:37.838Z,4.55
2023-01-20T05:29:05.909Z,4.47
2023-01-20T05:31:34.264Z,4.55
2023-01-20T05:34:02.179Z,4.56
2023-01-20T05:36:29.956Z,4.55
2023-01-20T05:38:57.876Z,4.50
2023-01-20T05:41:25.667Z,4.51
2023-01-20T05:43:55.585Z,4.46
2023-01-20T05:46:23.902Z,4.47
2023-01-20T05:48:51.701Z,4.44
2023-01-20T05:51:19.613Z,4.45
2023-01-20T05:53:47.361Z,4.49
2023-01-20T05:56:16.074Z,4.51
2023-01-20T05:58:44.414Z,4.39
2023-01-20T06:01:15.305Z,4.44
2023-01-20T06:03:43.632Z,4.44
2023-01-20T06:06:15.574Z,4.45
2023-01-20T06:08:43.514Z,4.47
2023-01-20T06:11:11.978Z,4.50
2023-01-20T06:13:40.055Z,4.55
2023-01-20T06:16:08.481Z,4.50
2023-01-20T06:18:37.758Z,4.50
2023-01-20T06:21:05.872Z,4.52
2023-01-20T06:23:33.683Z,4.56
2023-01-20T06:26:02.821Z,4.54
2023-01-20T06:28:30.700Z,4.54
2023-01-20T06:31:02.876Z,4.53
2023-01-20T06:33:31.076Z,4.47
2023-01-20T06:36:00.508Z,4.54
2023-01-20T06:38:31.527Z,4.55
2023-01-20T06:40:59.928Z,4.58
2023-01-20T06:43:29.678Z,4.60
2023-01-20T06:46:01.126Z,4.60
2023-01-20T06:48:29.893Z,4.56
2023-01-20T06:51:03.290Z,4.56
2023-01-20T06:53:31.545Z,4.54
2023-01-20T06:56:00.869Z,4.54
2023-01-20T06:58:30.840Z,4.61
2023-01-20T07:01:04.672Z,4.52
2023-01-20T07:03:32.541Z,4.62
2023-01-20T07:06:03.209Z,4.57
2023-01-20T07:08:31.333Z,4.63
2023-01-20T07:10:59.134Z,4.67
2023-01-20T07:13:27.058Z,4.59
2023-01-20T07:15:54.906Z,4.58
2023-01-20T07:18:22.953Z,4.44
2023-01-20T07:20:54.536Z,4.53
2023-01-20T07:23:24.002Z,4.45
2023-01-20T07:25:58.688Z,4.49
2023-01-20T07:28:26.698Z,4.37
2023-01-20T07:30:54.664Z,4.41
2023-01-20T07:33:22.780Z,4.39
2023-01-20T07:35:54.262Z,4.41
2023-01-20T07:38:23.378Z,4.44
2023-01-20T07:40:51.225Z,4.45
2023-01-20T07:43:18.956Z,4.47
2023-01-20T07:45:46.739Z,4.51
2023-01-20T07:48:14.514Z,4.60
2023-01-20T07:50:42.281Z,4.49
2023-01-20T07:53:09.973Z,4.54
2023-01-20T07:55:39.088Z,4.53
2023-01-20T07:58:06.786Z,4.51
2023-01-20T08:00:34.908Z,4.56
2023-01-20T08:03:02.688Z,4.56
2023-01-20T08:05:30.389Z,4.56
2023-01-20T08:07:58.168Z,4.62
2023-01-20T08:10:25.875Z,4.60
2023-01-20T08:12:55.029Z,4.60
2023-01-20T08:15:22.947Z,4.59
2023-01-20T08:17:54.597Z,4.57
2023-01-20T08:20:22.569Z,4.60
2023-01-20T08:22:50.316Z,4.58
2023-01-20T08:25:18.135Z,4.61
2023-01-20T08:27:45.904Z,4.56
2023-01-20T08:30:15.639Z,4.58
2023-01-20T08:32:43.409Z,4.62
2023-01-20T08:35:11.390Z,4.65
2023-01-20T08:37:39.239Z,4.63
2023-01-20T08:40:08.588Z,4.68
2023-01-20T08:42:36.417Z,4.72
2023-01-20T08:45:04.878Z,4.69
2023-01-20T08:47:36.790Z,4.74
2023-01-20T08:50:05.255Z,4.74
2023-01-20T08:52:34.023Z,4.73
2023-01-20T08:55:01.907Z,4.65
2023-01-20T08:57:30.358Z,4.67
2023-01-20T08:59:58.153Z,4.80
2023-01-20T09:02:25.925Z,4.83
2023-01-20T09:04:55.060Z,4.83
2023-01-20T09:07:22.866Z,4.78
2023-01-20T09:09:50.915Z,4.83
2023-01-20T09:12:18.691Z,4.84
2023-01-20T09:14:46.776Z,4.90
2023-01-20T09:17:14.795Z,4.85
2023-01-20T09:19:42.555Z,4.84
2023-01-20T09:22:11.634Z,4.87
2023-01-20T09:24:40.287Z,4.86
2023-01-20T09:27:08.225Z,4.81
2023-01-20T09:29:36.768Z,4.77
2023-01-20T09:32:04.814Z,4.79
2023-01-20T09:34:32.735Z,4.94
2023-01-20T09:37:23.159Z,5.04
2023-01-20T09:40:09.466Z,5.10
2023-01-20T09:43:08.832Z,5.05
2023-01-20T09:45:44.158Z,5.02
2023-01-20T09:48:36.923Z,5.03
2023-01-20T09:51:29.897Z,5.03
2023-01-20T09:54:05.200Z,5.18
2023-01-20T09:56:42.840Z,5.19
2023-01-20T09:59:13.319Z,5.22
2023-01-20T10:01:46.502Z,5.29
2023-01-20T10:04:20.099Z,5.28
2023-01-20T10:06:51.061Z,5.31
2023-01-20T10:09:29.040Z,5.34
2023-01-20T10:12:07.079Z,5.37
2023-01-20T10:14:39.440Z,5.44
2023-01-20T10:17:15.010Z,5.40
2023-01-20T10:19:50.623Z,5.44
2023-01-20T10:22:24.095Z,5.31
2023-01-20T10:24:58.055Z,5.28
2023-01-20T10:27:30.850Z,5.27
2023-01-20T10:30:05.140Z,5.31
2023-01-20T10:32:36.604Z,5.33
2023-01-20T10:35:15.377Z,5.35
2023-01-20T10:37:43.612Z,5.35
2023-01-20T10:40:20.611Z,5.35
2023-01-20T10:42:53.495Z,5.36
2023-01-20T10:45:28.503Z,5.39
2023-01-20T10:48:04.148Z,5.42
2023-01-20T10:50:42.290Z,5.39
2023-01-20T10:53:21.563Z,5.36
2023-01-20T10:56:04.851Z,5.29
2023-01-20T10:58:37.636Z,5.29
2023-01-20T11:01:08.955Z,5.32
2023-01-20T11:03:40.480Z,5.22
2023-01-20T11:06:08.764Z,5.28
2023-01-20T11:08:36.481Z,5.27
2023-01-20T11:11:12.182Z,5.27
2023-01-20T11:13:41.290Z,5.33
2023-01-20T11:16:15.149Z,5.32
2023-01-20T11:18:42.973Z,5.40
2023-01-20T11:21:13.286Z,5.40
2023-01-20T11:23:43.597Z,5.40
2023-01-20T11:26:21.214Z,5.39
2023-01-20T11:28:54.958Z,5.43
2023-01-20T11:31:34.223Z,5.43
2023-01-20T11:34:04.300Z,5.47
2023-01-20T11:36:32.071Z,5.51
2023-01-20T11:38:59.861Z,5.53
2023-01-20T11:41:29.590Z,5.59
2023-01-20T11:44:00.045Z,5.60
2023-01-20T11:46:31.197Z,5.64
2023-01-20T11:49:17.884Z,5.58
2023-01-20T11:51:51.093Z,5.53
2023-01-20T11:54:20.860Z,5.57
2023-01-20T11:56:52.551Z,5.58
2023-01-20T11:59:28.457Z,5.53
2023-01-20T12:02:01.521Z,5.51
2023-01-20T12:04:48.335Z,5.60
2023-01-20T12:07:23.583Z,5.51
2023-01-20T12:09:54.819Z,5.57
2023-01-20T12:12:32.956Z,5.55
2023-01-20T12:15:06.822Z,5.44
2023-01-20T12:17:42.734Z,5.39
2023-01-20T12:20:18.473Z,5.40
2023-01-20T12:22:58.635Z,5.39
2023-01-20T12:25:31.042Z,5.43
2023-01-20T12:28:04.502Z,5.52
2023-01-20T12:30:40.160Z,5.52
2023-01-20T12:33:21.572Z,5.59
2023-01-20T12:36:25.677Z,5.62
2023-01-20T12:39:09.259Z,5.63
2023-01-20T12:41:56.405Z,5.57
2023-01-20T12:44:32.113Z,5.60
2023-01-20T12:47:11.837Z,5.63
2023-01-20T12:49:55.760Z,5.59
2023-01-20T12:52:40.226Z,5.48
2023-01-20T12:55:38.827Z,5.48
2023-01-20T12:58:19.090Z,5.35
2023-01-20T13:01:04.860Z,5.38
2023-01-20T13:04:09.309Z,5.37
2023-01-20T13:06:50.277Z,5.28
2023-01-20T13:09:53.598Z,5.30
2023-01-20T13:12:37.819Z,5.35
2023-01-20T13:15:18.103Z,5.33
2023-01-20T13:17:55.680Z,5.25
2023-01-20T13:20:28.377Z,5.29
2023-01-20T13:22:57.356Z,5.30
2023-01-20T13:25:25.743Z,5.35
2023-01-20T13:27:56.690Z,5.36
2023-01-20T13:30:42.960Z,5.37
2023-01-20T13:33:27.892Z,5.34
2023-01-20T13:35:59.937Z,5.32
2023-01-20T13:38:37.845Z,5.27
2023-01-20T13:41:06.264Z,5.31
2023-01-20T13:43:47.900Z,5.26
2023-01-20T13:46:38.509Z,5.32
2023-01-20T13:49:28.798Z,5.29
2023-01-20T13:52:00.801Z,5.25
2023-01-20T13:54:47.748Z,5.33
2023-01-20T13:57:45.341Z,5.26
2023-01-20T14:00:18.467Z,5.24
2023-01-20T14:02:48.106Z,5.25
2023-01-20T14:05:31.968Z,5.28
2023-01-20T14:08:01.494Z,5.13
2023-01-20T14:10:30.383Z,5.15
2023-01-20T14:12:58.086Z,5.06
2023-01-20T14:15:37.254Z,5.16
2023-01-20T14:18:05.888Z,5.19
2023-01-20T14:20:58.855Z,5.23
2023-01-20T14:23:33.900Z,5.23
2023-01-20T14:26:04.187Z,5.22
2023-01-20T14:28:32.493Z,5.19
2023-01-20T14:31:35.280Z,5.17
2023-01-20T14:34:22.911Z,4.99
2023-01-20T14:36:52.201Z,4.95
2023-01-20T14:39:24.350Z,5.00
2023-01-20T14:41:53.384Z,5.01
2023-01-20T14:44:23.262Z,5.05
2023-01-20T14:46:53.299Z,5.00
2023-01-20T14:49:23.637Z,5.00
2023-01-20T14:51:52.889Z,5.05
2023-01-20T14:54:46.412Z,4.93
2023-01-20T14:57:23.060Z,5.01
2023-01-20T15:00:03.537Z,5.09
2023-01-20T15:02:33.314Z,5.10
2023-01-20T15:05:01.247Z,5.03
2023-01-20T15:07:29.210Z,4.95
2023-01-20T15:10:03.148Z,4.98
2023-01-20T15:12:42.427Z,5.06
2023-01-20T15:15:16.514Z,4.96
2023-01-20T15:18:21.392Z,4.94
2023-01-20T15:20:52.767Z,4.87
2023-01-20T15:23:32.468Z,4.92
2023-01-20T15:26:09.935Z,4.99
2023-01-20T15:28:44.698Z,4.96
2023-01-20T15:31:15.298Z,5.03
2023-01-20T15:33:43.589Z,5.07
2023-01-20T15:36:21.877Z,5.04
2023-01-20T15:38:49.971Z,5.14
2023-01-20T15:41:19.829Z,5.07
2023-01-20T15:43:49.097Z,5.09
2023-01-20T15:46:18.531Z,5.09
2023-01-20T15:48:47.165Z,5.09
2023-01-20T15:51:19.138Z,5.04
2023-01-20T15:53:47.740Z,5.02
2023-01-20T15:56:20.711Z,5.06
2023-01-20T15:58:49.471Z,5.07
2023-01-20T16:01:19.242Z,5.04
2023-01-20T16:03:47.332Z,5.06
2023-01-20T16:06:17.078Z,5.05
2023-01-20T16:08:47.115Z,5.06
2023-01-20T16:11:15.388Z,5.03
2023-01-20T16:13:44.834Z,5.06
2023-01-20T16:16:14.574Z,5.04
2023-01-20T16:18:42.703Z,5.05
2023-01-20T16:21:11.711Z,5.04
2023-01-20T16:23:39.684Z,5.05
2023-01-20T16:26:19.971Z,5.08
2023-01-20T16:28:49.116Z,5.07
2023-01-20T16:31:17.399Z,4.97
2023-01-20T16:33:45.264Z,4.97
2023-01-20T16:36:14.442Z,4.99
2023-01-20T16:38:42.578Z,4.95
2023-01-20T16:41:16.287Z,4.99
2023-01-20T16:43:44.573Z,5.01
2023-01-20T16:46:16.461Z,5.00
2023-01-20T16:48:44.913Z,4.96
2023-01-20T16:51:14.215Z,4.95
2023-01-20T16:53:42.236Z,4.94
2023-01-20T16:56:15.081Z,4.87
2023-01-20T16:58:42.914Z,4.81
2023-01-20T17:01:12.695Z,4.78
2023-01-20T17:03:44.325Z,4.71
2023-01-20T17:06:18.183Z,4.69
2023-01-20T17:08:46.867Z,4.63
2023-01-20T17:11:17.951Z,4.63
2023-01-20T17:13:45.703Z,4.56
2023-01-20T17:16:14.232Z,4.58
2023-01-20T17:18:45.530Z,4.50
2023-01-20T17:21:14.306Z,4.50
2023-01-20T17:23:42.317Z,4.48
2023-01-20T17:26:10.990Z,4.43
2023-01-20T17:28:38.666Z,4.44
2023-01-20T17:31:07.772Z,4.44
2023-01-20T17:33:35.521Z,4.39
2023-01-20T17:36:06.734Z,4.40
2023-01-20T17:38:35.541Z,4.33
2023-01-20T17:41:04.692Z,4.29
2023-01-20T17:43:33.491Z,4.24
2023-01-20T17:46:01.327Z,4.26
2023-01-20T17:48:29.243Z,4.21
2023-01-20T17:50:59.125Z,4.22
2023-01-20T17:53:28.283Z,4.22
2023-01-20T17:56:10.917Z,4.22
2023-01-20T17:58:40.200Z,4.15
2023-01-20T18:01:13.519Z,4.12
2023-01-20T18:03:43.100Z,4.13
2023-01-20T18:06:12.732Z,4.13
2023-01-20T18:08:42.128Z,4.05
2023-01-20T18:11:12.552Z,4.05
2023-01-20T18:13:40.268Z,4.03
2023-01-20T18:16:11.217Z,4.01
2023-01-20T18:18:39.452Z,4.01
2023-01-20T18:21:12.178Z,3.88
2023-01-20T18:23:42.472Z,3.92
2023-01-20T18:26:11.612Z,3.91
2023-01-20T18:28:39.421Z,3.86
2023-01-20T18:31:09.743Z,3.86
2023-01-20T18:33:39.832Z,3.88
2023-01-20T18:36:10.119Z,3.88
2023-01-20T18:38:43.001Z,3.89
2023-01-20T18:41:12.921Z,3.88
2023-01-20T18:43:41.610Z,3.85
2023-01-20T18:46:10.246Z,3.80
2023-01-20T18:48:39.639Z,3.80
2023-01-20T18:51:10.264Z,3.80
2023-01-20T18:53:38.130Z,3.75
2023-01-20T18:56:08.594Z,3.73
2023-01-20T18:58:39.562Z,3.68
2023-01-20T19:01:09.004Z,3.69
2023-01-20T19:03:37.764Z,3.66
2023-01-20T19:06:07.857Z,3.71
2023-01-20T19:08:35.936Z,3.70
2023-01-20T19:11:05.252Z,3.70
2023-01-20T19:13:33.431Z,3.71
2023-01-20T19:16:02.903Z,3.59
2023-01-20T19:18:30.784Z,3.72
2023-01-20T19:21:07.838Z,3.66
2023-01-20T19:23:39.745Z,3.72
2023-01-20T19:26:09.994Z,3.70
2023-01-20T19:28:38.454Z,3.69
2023-01-20T19:31:09.806Z,3.63
2023-01-20T19:33:38.617Z,3.70
2023-01-20T19:36:08.544Z,3.69
2023-01-20T19:38:36.453Z,3.70
2023-01-20T19:41:11.849Z,3.70
2023-01-20T19:43:40.227Z,3.68
2023-01-20T19:46:11.468Z,3.68
2023-01-20T19:48:39.795Z,3.69
2023-01-20T19:51:11.316Z,3.67
2023-01-20T19:53:40.023Z,3.66
2023-01-20T19:56:10.118Z,3.60
2023-01-20T19:58:38.725Z,3.60
2023-01-20T20:01:09.129Z,3.62
2023-01-20T20:03:37.309Z,3.60
2023-01-20T20:06:06.970Z,3.63
2023-01-20T20:08:36.179Z,3.65
2023-01-20T20:11:04.376Z,3.63
2023-01-20T20:13:32.082Z,3.64
2023-01-20T20:16:03.488Z,3.65
2023-01-20T20:18:33.205Z,3.62
2023-01-20T20:21:00.995Z,3.62
2023-01-20T20:23:29.860Z,3.61
2023-01-20T20:25:57.788Z,3.59
2023-01-20T20:28:26.203Z,3.57
2023-01-20T20:30:55.518Z,3.54
2023-01-20T20:33:23.999Z,3.57
2023-01-20T20:35:53.124Z,3.53
2023-01-20T20:38:20.941Z,3.47
2023-01-20T20:40:48.734Z,3.45
2023-01-20T20:43:16.483Z,3.48
2023-01-20T20:45:44.256Z,3.51
2023-01-20T20:48:11.992Z,3.48
2023-01-20T20:50:39.732Z,3.49
2023-01-20T20:53:08.767Z,3.48
2023-01-20T20:55:40.384Z,3.49
2023-01-20T20:58:09.217Z,3.46
2023-01-20T21:00:37.302Z,3.45
2023-01-20T21:03:06.801Z,3.45
2023-01-20T21:05:34.919Z,3.44
2023-01-20T21:08:04.634Z,3.43
2023-01-20T21:10:34.033Z,3.42
2023-01-20T21:13:01.804Z,3.47
2023-01-20T21:15:30.481Z,3.47
2023-01-20T21:17:58.392Z,3.44
2023-01-20T21:20:26.307Z,3.45
2023-01-20T21:22:56.192Z,3.44
2023-01-20T21:25:26.061Z,3.45
2023-01-20T21:27:55.225Z,3.45
2023-01-20T21:30:22.946Z,3.41
2023-01-20T21:32:50.705Z,3.42
2023-01-20T21:35:18.485Z,3.40
2023-01-20T21:37:46.334Z,3.39
2023-01-20T21:40:14.828Z,3.40
2023-01-20T21:42:42.831Z,3.37
2023-01-20T21:45:11.641Z,3.36
2023-01-20T21:47:39.427Z,3.34
2023-01-20T21:50:25.402Z,3.29
2023-01-20T21:52:53.154Z,3.30
2023-01-20T21:55:21.515Z,3.27
2023-01-20T21:57:51.505Z,3.27
2023-01-20T22:00:21.999Z,3.25
2023-01-20T22:02:49.794Z,3.21
2023-01-20T22:05:18.172Z,3.22
2023-01-20T22:07:47.808Z,3.19
2023-01-20T22:10:15.806Z,3.16
2023-01-20T22:12:43.693Z,3.12
2023-01-20T22:15:12.304Z,3.11
2023-01-20T22:17:41.502Z,3.07
2023-01-20T22:20:10.913Z,2.98
2023-01-20T22:22:38.754Z,3.05
2023-01-20T22:25:07.451Z,3.05
2023-01-20T22:27:35.268Z,3.03
2023-01-20T22:30:03.048Z,3.06
2023-01-20T22:32:30.797Z,3.03
2023-01-20T22:34:59.916Z,3.01
2023-01-20T22:37:27.808Z,2.97
2023-01-20T22:39:55.788Z,2.99
2023-01-20T22:42:23.940Z,2.89
2023-01-20T22:44:51.764Z,2.96
2023-01-20T22:47:19.473Z,2.79
2023-01-20T22:49:47.187Z,2.90
2023-01-20T22:52:16.293Z,2.92
2023-01-20T22:54:45.689Z,2.93
2023-01-20T22:57:13.370Z,2.98
2023-01-20T22:59:41.102Z,2.98
2023-01-20T23:02:09.725Z,3.02
2023-01-20T23:04:37.442Z,3.02
2023-01-20T23:07:05.135Z,2.98
2023-01-20T23:09:34.324Z,2.92
2023-01-20T23:12:02.069Z,2.95
2023-01-20T23:14:44.223Z,2.91
2023-01-20T23:17:12.030Z,2.93
2023-01-20T23:19:39.791Z,2.92
2023-01-20T23:22:08.403Z,2.81
2023-01-20T23:24:37.462Z,2.79
2023-01-20T23:27:05.288Z,2.79
2023-01-20T23:29:33.479Z,2.73
2023-01-20T23:32:04.030Z,2.69
2023-01-20T23:34:33.192Z,2.69
2023-01-20T23:37:00.997Z,2.66
2023-01-20T23:39:31.947Z,2.71
2023-01-20T23:42:01.944Z,2.72
2023-01-20T23:44:31.621Z,2.72
2023-01-20T23:46:59.345Z,2.72
2023-01-20T23:49:27.126Z,2.65
2023-01-20T23:51:54.884Z,2.64
2023-01-20T23:54:23.167Z,2.63
2023-01-20T23:56:50.923Z,2.65
2023-01-20T23:59:20.120Z,2.68
